sensor_id;sensor_type;location;lat;lon;timestamp;temperature;humidity
15298;DHT22;7750;48.796;9.026;2023-05-10T00:01:24;17.80;80.90
15298;DHT22;7750;48.796;9.026;2023-05-10T00:06:25;17.70;81.00
15298;DHT22;7750;48.796;9.026;2023-05-10T00:11:26;17.60;81.10
15298;DHT22;7750;48.796;9.026;2023-05-10T00:16:27;17.50;81.10
15298;DHT22;7750;48.796;9.026;2023-05-10T00:21:27;17.40;81.10
15298;DHT22;7750;48.796;9.026;2023-05-10T00:26:28;17.30;81.40
15298;DHT22;7750;48.796;9.026;2023-05-10T00:31:29;17.20;81.20
15298;DHT22;7750;48.796;9.026;2023-05-10T00:36:29;17.10;81.50
15298;DHT22;7750;48.796;9.026;2023-05-10T00:41:31;17.10;81.70
15298;DHT22;7750;48.796;9.026;2023-05-10T00:46:34;17.00;82.00
15298;DHT22;7750;48.796;9.026;2023-05-10T00:51:35;17.00;82.00
15298;DHT22;7750;48.796;9.026;2023-05-10T00:56:36;17.00;82.10
15298;DHT22;7750;48.796;9.026;2023-05-10T01:01:38;16.90;82.10
15298;DHT22;7750;48.796;9.026;2023-05-10T01:06:40;16.90;82.50
15298;DHT22;7750;48.796;9.026;2023-05-10T01:11:41;16.80;82.50
15298;DHT22;7750;48.796;9.026;2023-05-10T01:16:42;16.80;82.80
15298;DHT22;7750;48.796;9.026;2023-05-10T01:42:54;16.60;83.60
15298;DHT22;7750;48.796;9.026;2023-05-10T01:48:09;16.60;83.80
15298;DHT22;7750;48.796;9.026;2023-05-10T01:53:11;16.50;83.80
15298;DHT22;7750;48.796;9.026;2023-05-10T01:58:15;16.40;83.60
15298;DHT22;7750;48.796;9.026;2023-05-10T02:03:18;16.40;83.90
15298;DHT22;7750;48.796;9.026;2023-05-10T02:08:22;16.30;84.00
15298;DHT22;7750;48.796;9.026;2023-05-10T02:13:24;16.30;84.20
15298;DHT22;7750;48.796;9.026;2023-05-10T02:18:27;16.30;84.00
15298;DHT22;7750;48.796;9.026;2023-05-10T02:23:28;16.30;84.00
15298;DHT22;7750;48.796;9.026;2023-05-10T02:28:30;16.20;84.00
15298;DHT22;7750;48.796;9.026;2023-05-10T02:33:31;16.20;84.00
15298;DHT22;7750;48.796;9.026;2023-05-10T02:38:33;16.20;83.80
15298;DHT22;7750;48.796;9.026;2023-05-10T02:43:35;16.20;83.90
15298;DHT22;7750;48.796;9.026;2023-05-10T02:48:37;16.30;83.80
15298;DHT22;7750;48.796;9.026;2023-05-10T02:53:40;16.20;83.60
15298;DHT22;7750;48.796;9.026;2023-05-10T02:58:42;16.30;83.60
15298;DHT22;7750;48.796;9.026;2023-05-10T03:03:43;16.30;83.40
15298;DHT22;7750;48.796;9.026;2023-05-10T03:08:44;16.20;83.50
15298;DHT22;7750;48.796;9.026;2023-05-10T03:19:22;16.20;84.00
15298;DHT22;7750;48.796;9.026;2023-05-10T03:24:27;16.20;84.10
15298;DHT22;7750;48.796;9.026;2023-05-10T03:29:29;16.20;84.10
15298;DHT22;7750;48.796;9.026;2023-05-10T03:34:31;16.20;84.00
15298;DHT22;7750;48.796;9.026;2023-05-10T03:39:31;16.20;84.10
15298;DHT22;7750;48.796;9.026;2023-05-10T03:44:32;16.20;84.00
15298;DHT22;7750;48.796;9.026;2023-05-10T03:49:33;16.20;84.50
15298;DHT22;7750;48.796;9.026;2023-05-10T03:54:34;16.30;84.00
15298;DHT22;7750;48.796;9.026;2023-05-10T03:59:34;16.30;83.80
15298;DHT22;7750;48.796;9.026;2023-05-10T04:04:35;16.30;83.80
15298;DHT22;7750;48.796;9.026;2023-05-10T04:09:36;16.30;83.60
15298;DHT22;7750;48.796;9.026;2023-05-10T04:14:37;16.30;83.80
15298;DHT22;7750;48.796;9.026;2023-05-10T04:19:37;16.30;83.50
15298;DHT22;7750;48.796;9.026;2023-05-10T04:24:38;16.30;83.70
15298;DHT22;7750;48.796;9.026;2023-05-10T04:29:39;16.30;83.90
15298;DHT22;7750;48.796;9.026;2023-05-10T04:34:39;16.20;84.10
15298;DHT22;7750;48.796;9.026;2023-05-10T04:39:40;16.20;84.20
15298;DHT22;7750;48.796;9.026;2023-05-10T04:44:41;16.20;84.30
15298;DHT22;7750;48.796;9.026;2023-05-10T04:49:41;16.20;84.30
15298;DHT22;7750;48.796;9.026;2023-05-10T04:54:42;16.20;84.50
15298;DHT22;7750;48.796;9.026;2023-05-10T04:59:43;16.30;84.60
15298;DHT22;7750;48.796;9.026;2023-05-10T05:04:43;16.20;84.70
15298;DHT22;7750;48.796;9.026;2023-05-10T05:09:44;16.30;84.80
15298;DHT22;7750;48.796;9.026;2023-05-10T05:14:44;16.30;85.00
15298;DHT22;7750;48.796;9.026;2023-05-10T05:19:45;16.30;85.10
15298;DHT22;7750;48.796;9.026;2023-05-10T05:24:46;16.30;85.10
15298;DHT22;7750;48.796;9.026;2023-05-10T05:29:46;16.40;85.00
15298;DHT22;7750;48.796;9.026;2023-05-10T05:34:47;16.40;85.00
15298;DHT22;7750;48.796;9.026;2023-05-10T05:39:49;16.50;84.90
15298;DHT22;7750;48.796;9.026;2023-05-10T05:44:50;16.50;85.20
15298;DHT22;7750;48.796;9.026;2023-05-10T05:49:50;16.60;85.10
15298;DHT22;7750;48.796;9.026;2023-05-10T05:54:51;16.60;84.60
15298;DHT22;7750;48.796;9.026;2023-05-10T05:59:52;16.70;84.80
15298;DHT22;7750;48.796;9.026;2023-05-10T06:04:52;16.70;84.80
15298;DHT22;7750;48.796;9.026;2023-05-10T06:09:53;16.70;84.80
15298;DHT22;7750;48.796;9.026;2023-05-10T06:14:54;16.80;84.60
15298;DHT22;7750;48.796;9.026;2023-05-10T06:19:55;16.80;85.00
15298;DHT22;7750;48.796;9.026;2023-05-10T06:24:56;16.80;84.50
15298;DHT22;7750;48.796;9.026;2023-05-10T06:29:56;16.80;84.40
15298;DHT22;7750;48.796;9.026;2023-05-10T06:34:57;16.80;84.00
15298;DHT22;7750;48.796;9.026;2023-05-10T06:39:58;16.80;84.10
15298;DHT22;7750;48.796;9.026;2023-05-10T06:44:58;16.80;84.20
15298;DHT22;7750;48.796;9.026;2023-05-10T06:49:59;16.80;83.80
15298;DHT22;7750;48.796;9.026;2023-05-10T06:55:00;16.70;83.70
15298;DHT22;7750;48.796;9.026;2023-05-10T07:00:01;16.70;84.30
15298;DHT22;7750;48.796;9.026;2023-05-10T07:05:04;16.80;84.50
15298;DHT22;7750;48.796;9.026;2023-05-10T07:10:05;16.80;84.40
15298;DHT22;7750;48.796;9.026;2023-05-10T07:15:08;16.80;84.50
15298;DHT22;7750;48.796;9.026;2023-05-10T07:20:09;16.90;85.00
15298;DHT22;7750;48.796;9.026;2023-05-10T07:25:09;17.00;84.30
15298;DHT22;7750;48.796;9.026;2023-05-10T07:30:11;17.10;84.40
15298;DHT22;7750;48.796;9.026;2023-05-10T07:35:12;17.20;85.00
15298;DHT22;7750;48.796;9.026;2023-05-10T07:40:12;17.30;84.60
15298;DHT22;7750;48.796;9.026;2023-05-10T07:45:13;17.40;83.80
15298;DHT22;7750;48.796;9.026;2023-05-10T07:50:14;17.50;83.60
15298;DHT22;7750;48.796;9.026;2023-05-10T07:55:14;17.50;82.50
15298;DHT22;7750;48.796;9.026;2023-05-10T08:00:19;17.60;82.60
15298;DHT22;7750;48.796;9.026;2023-05-10T08:05:20;17.60;81.20
15298;DHT22;7750;48.796;9.026;2023-05-10T08:10:21;17.60;81.00
15298;DHT22;7750;48.796;9.026;2023-05-10T08:15:21;17.60;80.70
15298;DHT22;7750;48.796;9.026;2023-05-10T08:20:22;17.70;80.60
15298;DHT22;7750;48.796;9.026;2023-05-10T08:25:23;17.70;79.50
15298;DHT22;7750;48.796;9.026;2023-05-10T08:30:23;17.70;80.50
15298;DHT22;7750;48.796;9.026;2023-05-10T08:35:24;17.80;80.00
15298;DHT22;7750;48.796;9.026;2023-05-10T08:40:26;17.90;80.20
15298;DHT22;7750;48.796;9.026;2023-05-10T08:45:27;18.00;78.50
15298;DHT22;7750;48.796;9.026;2023-05-10T08:50:37;18.10;77.10
15298;DHT22;7750;48.796;9.026;2023-05-10T08:55:39;18.20;78.30
15298;DHT22;7750;48.796;9.026;2023-05-10T09:00:40;18.20;78.40
15298;DHT22;7750;48.796;9.026;2023-05-10T09:05:41;18.30;75.00
15298;DHT22;7750;48.796;9.026;2023-05-10T09:10:43;19.00;72.30
15298;DHT22;7750;48.796;9.026;2023-05-10T09:15:45;18.70;73.20
15298;DHT22;7750;48.796;9.026;2023-05-10T09:20:48;18.60;74.00
15298;DHT22;7750;48.796;9.026;2023-05-10T09:26:04;18.60;74.00
15298;DHT22;7750;48.796;9.026;2023-05-10T09:31:05;18.60;72.90
15298;DHT22;7750;48.796;9.026;2023-05-10T09:36:09;18.60;74.00
15298;DHT22;7750;48.796;9.026;2023-05-10T09:41:19;18.70;75.00
15298;DHT22;7750;48.796;9.026;2023-05-10T09:46:21;18.70;74.00
15298;DHT22;7750;48.796;9.026;2023-05-10T09:51:22;18.70;73.60
15298;DHT22;7750;48.796;9.026;2023-05-10T09:56:36;18.70;73.60
15298;DHT22;7750;48.796;9.026;2023-05-10T10:01:38;18.70;72.60
15298;DHT22;7750;48.796;9.026;2023-05-10T10:06:39;18.70;72.00
15298;DHT22;7750;48.796;9.026;2023-05-10T10:11:40;18.70;73.00
15298;DHT22;7750;48.796;9.026;2023-05-10T10:16:41;18.80;71.30
15298;DHT22;7750;48.796;9.026;2023-05-10T10:21:42;18.90;72.20
15298;DHT22;7750;48.796;9.026;2023-05-10T10:26:43;19.00;71.20
15298;DHT22;7750;48.796;9.026;2023-05-10T10:32:01;19.10;72.90
15298;DHT22;7750;48.796;9.026;2023-05-10T10:37:05;19.20;71.40
15298;DHT22;7750;48.796;9.026;2023-05-10T10:42:06;19.30;70.40
15298;DHT22;7750;48.796;9.026;2023-05-10T10:47:10;19.20;68.70
15298;DHT22;7750;48.796;9.026;2023-05-10T10:52:37;19.10;67.00
15298;DHT22;7750;48.796;9.026;2023-05-10T11:02:44;18.60;66.00
15298;DHT22;7750;48.796;9.026;2023-05-10T11:07:56;18.40;67.60
15298;DHT22;7750;48.796;9.026;2023-05-10T11:13:02;18.40;67.50
15298;DHT22;7750;48.796;9.026;2023-05-10T11:18:20;18.40;68.40
15298;DHT22;7750;48.796;9.026;2023-05-10T11:23:21;18.40;67.80
15298;DHT22;7750;48.796;9.026;2023-05-10T11:28:22;18.40;68.30
15298;DHT22;7750;48.796;9.026;2023-05-10T11:33:22;18.50;69.00
15298;DHT22;7750;48.796;9.026;2023-05-10T11:38:23;18.50;68.80
15298;DHT22;7750;48.796;9.026;2023-05-10T11:43:25;18.50;68.10
15298;DHT22;7750;48.796;9.026;2023-05-10T11:48:29;18.50;67.50
15298;DHT22;7750;48.796;9.026;2023-05-10T11:53:32;18.40;68.50
15298;DHT22;7750;48.796;9.026;2023-05-10T11:58:33;18.40;68.70
15298;DHT22;7750;48.796;9.026;2023-05-10T12:03:34;18.50;68.40
15298;DHT22;7750;48.796;9.026;2023-05-10T12:08:35;18.50;68.90
15298;DHT22;7750;48.796;9.026;2023-05-10T12:13:40;18.60;67.60
15298;DHT22;7750;48.796;9.026;2023-05-10T12:18:41;18.60;67.30
15298;DHT22;7750;48.796;9.026;2023-05-10T12:23:45;18.70;65.50
15298;DHT22;7750;48.796;9.026;2023-05-10T12:28:46;18.80;65.30
15298;DHT22;7750;48.796;9.026;2023-05-10T12:33:46;18.80;65.80
15298;DHT22;7750;48.796;9.026;2023-05-10T12:38:49;18.90;66.00
15298;DHT22;7750;48.796;9.026;2023-05-10T12:43:51;19.10;66.20
15298;DHT22;7750;48.796;9.026;2023-05-10T12:48:52;19.20;65.80
15298;DHT22;7750;48.796;9.026;2023-05-10T12:53:55;19.20;64.50
15298;DHT22;7750;48.796;9.026;2023-05-10T12:58:56;19.20;63.70
15298;DHT22;7750;48.796;9.026;2023-05-10T13:03:56;19.20;64.00
15298;DHT22;7750;48.796;9.026;2023-05-10T13:08:57;19.20;63.20
15298;DHT22;7750;48.796;9.026;2023-05-10T13:13:58;19.20;63.40
15298;DHT22;7750;48.796;9.026;2023-05-10T13:18:59;19.20;64.00
15298;DHT22;7750;48.796;9.026;2023-05-10T13:23:59;19.20;63.20
15298;DHT22;7750;48.796;9.026;2023-05-10T13:29:00;19.20;63.00
15298;DHT22;7750;48.796;9.026;2023-05-10T13:34:01;19.20;62.90
15298;DHT22;7750;48.796;9.026;2023-05-10T13:39:02;19.20;62.80
15298;DHT22;7750;48.796;9.026;2023-05-10T13:44:05;19.30;60.20
15298;DHT22;7750;48.796;9.026;2023-05-10T13:49:06;19.20;59.90
15298;DHT22;7750;48.796;9.026;2023-05-10T13:54:07;19.20;59.30
15298;DHT22;7750;48.796;9.026;2023-05-10T13:59:08;19.30;58.50
15298;DHT22;7750;48.796;9.026;2023-05-10T14:04:08;19.30;59.10
15298;DHT22;7750;48.796;9.026;2023-05-10T14:09:10;19.40;58.80
15298;DHT22;7750;48.796;9.026;2023-05-10T14:14:12;19.40;59.20
15298;DHT22;7750;48.796;9.026;2023-05-10T14:19:13;19.50;60.20
15298;DHT22;7750;48.796;9.026;2023-05-10T14:24:14;19.60;59.90
15298;DHT22;7750;48.796;9.026;2023-05-10T14:29:14;19.70;59.50
15298;DHT22;7750;48.796;9.026;2023-05-10T14:34:15;19.70;60.40
15298;DHT22;7750;48.796;9.026;2023-05-10T14:39:16;19.70;60.90
15298;DHT22;7750;48.796;9.026;2023-05-10T14:44:16;19.80;59.90
15298;DHT22;7750;48.796;9.026;2023-05-10T14:49:17;19.80;60.30
15298;DHT22;7750;48.796;9.026;2023-05-10T14:54:18;19.90;59.40
15298;DHT22;7750;48.796;9.026;2023-05-10T14:59:19;19.90;59.50
15298;DHT22;7750;48.796;9.026;2023-05-10T15:04:20;19.90;58.90
15298;DHT22;7750;48.796;9.026;2023-05-10T15:09:21;19.80;59.40
15298;DHT22;7750;48.796;9.026;2023-05-10T15:14:22;19.90;60.00
15298;DHT22;7750;48.796;9.026;2023-05-10T15:19:23;20.00;59.70
15298;DHT22;7750;48.796;9.026;2023-05-10T15:24:27;19.90;57.70
15298;DHT22;7750;48.796;9.026;2023-05-10T15:34:38;19.90;58.20
15298;DHT22;7750;48.796;9.026;2023-05-10T15:40:07;19.90;58.40
15298;DHT22;7750;48.796;9.026;2023-05-10T15:45:08;19.80;58.10
15298;DHT22;7750;48.796;9.026;2023-05-10T15:50:09;19.80;58.20
15298;DHT22;7750;48.796;9.026;2023-05-10T15:55:10;19.80;58.10
15298;DHT22;7750;48.796;9.026;2023-05-10T16:00:32;19.80;57.70
15298;DHT22;7750;48.796;9.026;2023-05-10T16:05:43;19.80;57.70
15298;DHT22;7750;48.796;9.026;2023-05-10T16:11:16;19.90;58.90
15298;DHT22;7750;48.796;9.026;2023-05-10T16:21:37;20.00;58.60
15298;DHT22;7750;48.796;9.026;2023-05-10T16:27:12;20.00;57.50
15298;DHT22;7750;48.796;9.026;2023-05-10T16:32:29;20.00;57.20
15298;DHT22;7750;48.796;9.026;2023-05-10T16:37:30;19.90;57.80
15298;DHT22;7750;48.796;9.026;2023-05-10T16:43:00;19.80;58.00
15298;DHT22;7750;48.796;9.026;2023-05-10T16:53:28;19.70;57.20
15298;DHT22;7750;48.796;9.026;2023-05-10T16:58:33;19.50;57.50
15298;DHT22;7750;48.796;9.026;2023-05-10T17:03:59;19.40;57.80
15298;DHT22;7750;48.796;9.026;2023-05-10T17:09:03;19.30;58.10
15298;DHT22;7750;48.796;9.026;2023-05-10T17:14:14;19.30;58.20
15298;DHT22;7750;48.796;9.026;2023-05-10T17:25:17;19.10;58.80
15298;DHT22;7750;48.796;9.026;2023-05-10T17:35:58;19.10;59.20
15298;DHT22;7750;48.796;9.026;2023-05-10T17:41:18;19.10;59.20
15298;DHT22;7750;48.796;9.026;2023-05-10T17:59:05;19.00;58.80
15298;DHT22;7750;48.796;9.026;2023-05-10T18:04:15;18.80;58.50
15298;DHT22;7750;48.796;9.026;2023-05-10T18:15:31;18.70;59.30
15298;DHT22;7750;48.796;9.026;2023-05-10T18:20:32;18.60;59.40
15298;DHT22;7750;48.796;9.026;2023-05-10T18:25:36;18.60;59.50
15298;DHT22;7750;48.796;9.026;2023-05-10T18:30:36;18.50;59.60
15298;DHT22;7750;48.796;9.026;2023-05-10T18:35:38;18.50;59.70
15298;DHT22;7750;48.796;9.026;2023-05-10T18:40:55;18.40;59.90
15298;DHT22;7750;48.796;9.026;2023-05-10T18:46:06;18.40;60.10
15298;DHT22;7750;48.796;9.026;2023-05-10T18:51:10;18.30;59.90
15298;DHT22;7750;48.796;9.026;2023-05-10T19:02:45;18.20;60.10
15298;DHT22;7750;48.796;9.026;2023-05-10T19:08:26;18.20;61.10
15298;DHT22;7750;48.796;9.026;2023-05-10T19:14:00;18.10;61.30
15298;DHT22;7750;48.796;9.026;2023-05-10T19:19:46;18.00;61.80
15298;DHT22;7750;48.796;9.026;2023-05-10T19:25:39;17.90;61.90
15298;DHT22;7750;48.796;9.026;2023-05-10T19:30:45;18.00;62.00
15298;DHT22;7750;48.796;9.026;2023-05-10T19:35:46;17.90;62.20
15298;DHT22;7750;48.796;9.026;2023-05-10T19:40:54;17.90;62.60
15298;DHT22;7750;48.796;9.026;2023-05-10T19:45:59;17.90;63.10
15298;DHT22;7750;48.796;9.026;2023-05-10T19:51:03;17.80;63.40
15298;DHT22;7750;48.796;9.026;2023-05-10T19:56:04;17.80;63.80
15298;DHT22;7750;48.796;9.026;2023-05-10T20:01:05;17.80;64.00
15298;DHT22;7750;48.796;9.026;2023-05-10T20:06:06;17.80;64.20
15298;DHT22;7750;48.796;9.026;2023-05-10T20:11:07;17.80;64.20
15298;DHT22;7750;48.796;9.026;2023-05-10T20:16:08;17.80;64.20
15298;DHT22;7750;48.796;9.026;2023-05-10T20:21:09;17.70;64.20
15298;DHT22;7750;48.796;9.026;2023-05-10T20:26:09;17.60;64.10
15298;DHT22;7750;48.796;9.026;2023-05-10T20:31:16;17.60;64.20
15298;DHT22;7750;48.796;9.026;2023-05-10T20:36:16;17.50;64.20
15298;DHT22;7750;48.796;9.026;2023-05-10T20:41:17;17.30;64.20
15298;DHT22;7750;48.796;9.026;2023-05-10T20:46:18;17.20;64.50
15298;DHT22;7750;48.796;9.026;2023-05-10T20:51:21;17.20;64.80
15298;DHT22;7750;48.796;9.026;2023-05-10T20:56:25;17.10;65.00
15298;DHT22;7750;48.796;9.026;2023-05-10T21:01:26;17.00;65.10
15298;DHT22;7750;48.796;9.026;2023-05-10T21:06:26;16.90;65.40
15298;DHT22;7750;48.796;9.026;2023-05-10T21:11:32;16.90;65.40
15298;DHT22;7750;48.796;9.026;2023-05-10T21:16:32;16.80;65.40
15298;DHT22;7750;48.796;9.026;2023-05-10T21:21:33;16.80;65.60
15298;DHT22;7750;48.796;9.026;2023-05-10T21:26:40;16.80;65.70
15298;DHT22;7750;48.796;9.026;2023-05-10T21:31:41;16.80;66.30
15298;DHT22;7750;48.796;9.026;2023-05-10T21:36:42;16.70;66.20
15298;DHT22;7750;48.796;9.026;2023-05-10T21:41:42;16.70;66.30
15298;DHT22;7750;48.796;9.026;2023-05-10T21:46:43;16.70;66.20
15298;DHT22;7750;48.796;9.026;2023-05-10T21:51:44;16.60;66.80
15298;DHT22;7750;48.796;9.026;2023-05-10T21:56:45;16.50;66.70
15298;DHT22;7750;48.796;9.026;2023-05-10T22:01:45;16.40;66.80
15298;DHT22;7750;48.796;9.026;2023-05-10T22:06:46;16.40;67.30
15298;DHT22;7750;48.796;9.026;2023-05-10T22:11:48;16.40;67.50
15298;DHT22;7750;48.796;9.026;2023-05-10T22:16:49;16.30;67.40
15298;DHT22;7750;48.796;9.026;2023-05-10T22:21:49;16.30;67.50
15298;DHT22;7750;48.796;9.026;2023-05-10T22:26:53;16.30;67.80
15298;DHT22;7750;48.796;9.026;2023-05-10T22:31:54;16.30;68.10
15298;DHT22;7750;48.796;9.026;2023-05-10T22:36:54;16.20;68.10
15298;DHT22;7750;48.796;9.026;2023-05-10T22:41:55;16.20;68.20
15298;DHT22;7750;48.796;9.026;2023-05-10T22:46:56;16.20;68.20
15298;DHT22;7750;48.796;9.026;2023-05-10T22:51:57;16.10;68.30
15298;DHT22;7750;48.796;9.026;2023-05-10T22:56:58;16.10;68.50
15298;DHT22;7750;48.796;9.026;2023-05-10T23:01:58;16.00;68.60
15298;DHT22;7750;48.796;9.026;2023-05-10T23:06:59;16.00;68.90
15298;DHT22;7750;48.796;9.026;2023-05-10T23:12:00;16.00;69.00
15298;DHT22;7750;48.796;9.026;2023-05-10T23:17:01;15.90;69.20
15298;DHT22;7750;48.796;9.026;2023-05-10T23:22:02;15.90;69.30
15298;DHT22;7750;48.796;9.026;2023-05-10T23:27:03;15.90;69.40
15298;DHT22;7750;48.796;9.026;2023-05-10T23:32:04;15.90;69.80
15298;DHT22;7750;48.796;9.026;2023-05-10T23:37:04;15.90;69.70
15298;DHT22;7750;48.796;9.026;2023-05-10T23:42:05;15.90;69.80
15298;DHT22;7750;48.796;9.026;2023-05-10T23:47:06;15.90;69.70
15298;DHT22;7750;48.796;9.026;2023-05-10T23:52:07;15.80;69.60
15298;DHT22;7750;48.796;9.026;2023-05-10T23:57:08;15.80;69.60
